Time;durP1;ratioP1;P1;durP2;ratioP2;P2;SDS_P1;SDS_P2;PMS_P1;PMS_P2;Temp;Humidity;BMP_temperature;BMP_pressure;BME280_temperature;BME280_humidity;BME280_pressure;Samples;Min_cycle;Max_cycle;Signal;HPM_P1;HPM_P2
2023/05/05 00:01:54;;;;;;;3.13;2.63;;;13.80;99.90;;;;;;5107263;28;20631;-72
2023/05/05 00:04:23;;;;;;;7.50;2.80;;;13.80;99.90;;;;;;5095394;28;20202;-72
2023/05/05 00:06:50;;;;;;;5.10;2.60;;;13.80;99.90;;;;;;5106756;28;20751;-72
2023/05/05 00:09:17;;;;;;;6.10;2.80;;;13.80;99.90;;;;;;5106565;28;20306;-72
2023/05/05 00:11:45;;;;;;;3.37;2.80;;;13.80;99.90;;;;;;5106158;28;20329;-72
2023/05/05 00:14:12;;;;;;;4.43;2.73;;;13.80;99.90;;;;;;5093125;28;20649;-72
2023/05/05 00:16:39;;;;;;;13.30;3.20;;;13.80;99.90;;;;;;5103495;28;20233;-73
2023/05/05 00:19:06;;;;;;;9.20;3.77;;;13.90;99.90;;;;;;5106302;28;20404;-73
2023/05/05 00:21:33;;;;;;;6.17;3.00;;;13.90;99.90;;;;;;5106152;28;20567;-73
2023/05/05 00:24:00;;;;;;;8.10;3.10;;;14.00;99.90;;;;;;5093980;28;20298;-73
2023/05/05 00:26:27;;;;;;;4.83;2.97;;;13.90;99.90;;;;;;5085518;28;20301;-72
2023/05/05 00:28:55;;;;;;;5.57;2.93;;;13.90;99.90;;;;;;5085708;28;20621;-72
2023/05/05 00:31:22;;;;;;;6.53;2.83;;;13.90;99.90;;;;;;5086368;28;20231;-71
2023/05/05 00:33:49;;;;;;;4.63;2.50;;;13.90;99.90;;;;;;5085604;28;20199;-71
2023/05/05 00:36:16;;;;;;;4.73;2.90;;;13.90;99.90;;;;;;5096454;28;20400;-71
2023/05/05 00:38:43;;;;;;;4.40;2.50;;;13.80;99.90;;;;;;5105834;28;20301;-71
2023/05/05 00:41:10;;;;;;;6.83;3.03;;;13.80;99.90;;;;;;5103362;28;20267;-72
2023/05/05 00:43:36;;;;;;;4.27;2.50;;;13.80;99.90;;;;;;5085859;28;20285;-72
2023/05/05 00:46:22;;;;;;;4.67;2.47;;;13.80;99.90;;;;;;5085907;28;20209;-72
2023/05/05 00:48:49;;;;;;;3.80;2.70;;;13.80;99.90;;;;;;5085484;28;20281;-72
2023/05/05 00:51:16;;;;;;;4.27;2.87;;;13.70;99.90;;;;;;5086220;28;20213;-72
2023/05/05 00:53:44;;;;;;;5.90;2.70;;;13.70;99.90;;;;;;5099574;28;20297;-72
2023/05/05 00:56:12;;;;;;;5.73;2.70;;;13.70;99.90;;;;;;5109177;28;20776;-72
2023/05/05 00:58:40;;;;;;;5.47;2.67;;;13.70;99.90;;;;;;5109318;28;20289;-72
2023/05/05 01:01:09;;;;;;;7.63;3.10;;;13.70;99.90;;;;;;5089073;28;20341;-71
2023/05/05 01:03:37;;;;;;;6.03;2.77;;;13.70;99.90;;;;;;5088978;28;20259;-72
2023/05/05 01:06:14;;;;;;;7.97;3.20;;;13.60;99.90;;;;;;5088550;28;20289;-71
2023/05/05 01:09:00;;;;;;;5.10;2.73;;;13.60;99.90;;;;;;5089152;28;20205;-71
2023/05/05 01:11:35;;;;;;;5.93;2.97;;;13.60;99.90;;;;;;5088526;28;20665;-71
2023/05/05 01:14:12;;;;;;;3.03;2.37;;;13.50;99.90;;;;;;5093400;28;20235;-71
2023/05/05 01:16:49;;;;;;;6.30;2.80;;;13.50;99.90;;;;;;5109220;27;20225;-71
2023/05/05 01:19:34;;;;;;;6.63;2.80;;;13.60;99.90;;;;;;5109175;28;20198;-72
2023/05/05 01:22:06;;;;;;;5.43;2.70;;;13.50;99.90;;;;;;5109106;28;20190;-72
2023/05/05 01:25:03;;;;;;;6.53;2.90;;;13.50;99.90;;;;;;5108564;28;20649;-72
2023/05/05 01:27:45;;;;;;;4.53;3.13;;;13.50;99.90;;;;;;5108743;28;20198;-72
2023/05/05 01:30:28;;;;;;;6.87;3.13;;;13.50;99.90;;;;;;5098240;28;20191;-72
2023/05/05 01:33:02;;;;;;;5.17;3.10;;;13.50;99.90;;;;;;5089409;28;20645;-71
2023/05/05 01:35:32;;;;;;;5.77;2.70;;;13.40;99.90;;;;;;5108721;28;20325;-70
2023/05/05 01:38:05;;;;;;;5.83;3.23;;;13.40;99.90;;;;;;5108903;28;20302;-71
2023/05/05 01:40:38;;;;;;;6.33;3.07;;;13.50;99.90;;;;;;5108583;28;20312;-70
2023/05/05 01:43:07;;;;;;;5.10;3.10;;;13.50;99.90;;;;;;5108834;28;20218;-70
2023/05/05 01:45:38;;;;;;;6.30;3.20;;;13.40;99.90;;;;;;5098762;27;20207;-71
2023/05/05 01:48:08;;;;;;;6.43;3.13;;;13.30;99.90;;;;;;5088242;28;20715;-71
2023/05/05 01:50:36;;;;;;;6.00;3.17;;;13.30;99.90;;;;;;5088024;28;20264;-71
2023/05/05 01:53:04;;;;;;;4.10;3.00;;;13.30;99.90;;;;;;5105907;28;20208;-71
2023/05/05 01:55:32;;;;;;;6.13;3.13;;;13.30;99.90;;;;;;5087655;28;20218;-71
2023/05/05 01:58:00;;;;;;;5.17;2.90;;;13.20;99.90;;;;;;5101614;28;20214;-71
2023/05/05 02:00:28;;;;;;;5.37;3.27;;;13.20;99.90;;;;;;5123563;27;20646;-71
2023/05/05 02:02:56;;;;;;;5.30;3.13;;;13.10;99.90;;;;;;5112676;27;20570;-68
2023/05/05 02:05:26;;;;;;;4.03;2.70;;;13.10;99.90;;;;;;5087784;28;20297;-70
2023/05/05 02:07:57;;;;;;;3.67;2.70;;;13.10;99.90;;;;;;5088220;28;20207;-70
2023/05/05 02:10:24;;;;;;;5.67;2.63;;;13.10;99.90;;;;;;5087357;28;20234;-72
2023/05/05 02:12:52;;;;;;;5.73;2.80;;;13.00;99.90;;;;;;5087568;28;20236;-72
2023/05/05 02:15:20;;;;;;;4.87;2.97;;;13.00;99.90;;;;;;5087733;28;20210;-71
2023/05/05 02:17:48;;;;;;;4.97;2.93;;;13.00;99.90;;;;;;5097511;28;20198;-71
2023/05/05 02:20:16;;;;;;;5.83;3.17;;;13.00;99.90;;;;;;5097553;28;20210;-70
2023/05/05 02:22:44;;;;;;;7.77;2.83;;;12.90;99.90;;;;;;5104892;28;20237;-72
2023/05/05 02:25:11;;;;;;;5.30;2.63;;;12.90;99.90;;;;;;5092607;28;20314;-72
2023/05/05 02:27:43;;;;;;;4.63;2.50;;;12.80;99.90;;;;;;5098652;28;20199;-71
2023/05/05 02:30:13;;;;;;;3.97;2.60;;;12.80;99.90;;;;;;5098633;28;20227;-71
2023/05/05 02:32:44;;;;;;;4.37;2.67;;;12.70;99.90;;;;;;5098066;28;20198;-71
2023/05/05 02:35:15;;;;;;;5.60;2.90;;;12.70;99.90;;;;;;5094368;28;20657;-71
2023/05/05 02:37:47;;;;;;;3.33;2.60;;;12.50;99.90;;;;;;5085256;28;20295;-71
2023/05/05 02:40:17;;;;;;;5.87;2.87;;;12.50;99.90;;;;;;5084888;28;20199;-70
2023/05/05 02:42:47;;;;;;;6.10;2.50;;;12.40;99.90;;;;;;5086541;28;20564;-71
2023/05/05 02:45:22;;;;;;;3.60;2.60;;;12.40;99.90;;;;;;5102428;28;20199;-71
2023/05/05 02:47:49;;;;;;;6.13;3.27;;;12.30;99.90;;;;;;5088735;28;20598;-71
2023/05/05 02:50:16;;;;;;;4.90;3.13;;;12.40;99.90;;;;;;5102402;28;20285;-71
2023/05/05 02:52:44;;;;;;;5.77;2.47;;;12.50;99.90;;;;;;5106761;27;20698;-72
2023/05/05 02:55:12;;;;;;;5.37;2.90;;;12.50;99.90;;;;;;5126143;27;20556;-71
2023/05/05 02:57:47;;;;;;;5.00;2.90;;;12.60;99.90;;;;;;5125537;27;20640;-71
2023/05/05 03:00:22;;;;;;;6.87;3.30;;;12.60;99.90;;;;;;5125582;27;20731;-72
2023/05/05 03:03:02;;;;;;;4.87;2.93;;;12.60;99.90;;;;;;5103040;27;20273;-71
2023/05/05 03:05:36;;;;;;;5.43;3.00;;;12.60;99.90;;;;;;5092034;28;20695;-70
2023/05/05 03:08:10;;;;;;;4.90;3.13;;;12.60;99.90;;;;;;5087370;28;20206;-71
2023/05/05 03:10:46;;;;;;;7.07;3.30;;;12.60;99.90;;;;;;5097450;28;20222;-71
2023/05/05 03:13:18;;;;;;;8.03;3.57;;;12.60;99.90;;;;;;5084785;28;20317;-72
2023/05/05 03:15:49;;;;;;;3.53;2.90;;;12.50;99.90;;;;;;5084663;28;20286;-72
2023/05/05 03:18:18;;;;;;;7.60;3.50;;;12.60;99.90;;;;;;5100296;28;20656;-71
2023/05/05 03:20:45;;;;;;;4.50;2.90;;;12.50;99.90;;;;;;5105922;28;20289;-71
2023/05/05 03:23:13;;;;;;;6.63;3.43;;;12.50;99.90;;;;;;5105521;28;20313;-71
2023/05/05 03:25:44;;;;;;;4.47;2.83;;;12.50;99.90;;;;;;5105804;28;20206;-71
2023/05/05 03:28:11;;;;;;;7.43;3.30;;;12.40;99.90;;;;;;5106257;28;20289;-71
2023/05/05 03:30:38;;;;;;;6.23;3.53;;;12.30;99.90;;;;;;5096998;27;20665;-71
2023/05/05 03:33:06;;;;;;;7.17;3.63;;;12.30;99.90;;;;;;5085919;28;20321;-71
2023/05/05 03:35:33;;;;;;;3.63;3.13;;;12.30;99.90;;;;;;5086063;28;20211;-71
2023/05/05 03:37:59;;;;;;;4.97;3.07;;;12.40;99.90;;;;;;5095595;28;20238;-71
2023/05/05 03:40:28;;;;;;;6.37;3.50;;;12.40;99.90;;;;;;5106186;28;20296;-71
2023/05/05 03:42:55;;;;;;;6.90;3.60;;;12.30;99.90;;;;;;5106847;28;20288;-71
2023/05/05 03:45:22;;;;;;;4.33;3.57;;;12.30;99.90;;;;;;5106147;28;20916;-72
2023/05/05 03:47:49;;;;;;;4.50;3.23;;;12.20;99.90;;;;;;5104008;28;20293;-71
2023/05/05 03:50:16;;;;;;;7.23;3.40;;;12.10;99.90;;;;;;5097452;28;20293;-71
2023/05/05 03:52:43;;;;;;;3.60;3.17;;;12.10;99.90;;;;;;5106294;28;20300;-71
2023/05/05 03:55:10;;;;;;;5.77;3.10;;;12.10;99.90;;;;;;5105856;28;20830;-71
2023/05/05 03:57:38;;;;;;;5.63;3.13;;;12.10;99.90;;;;;;5105735;28;20710;-71
2023/05/05 04:00:10;;;;;;;4.97;3.40;;;12.10;99.90;;;;;;5094071;28;20235;-71
2023/05/05 04:02:37;;;;;;;5.23;3.23;;;12.00;99.90;;;;;;5084131;28;20709;-71
2023/05/05 04:05:04;;;;;;;4.30;3.10;;;12.10;99.90;;;;;;5085451;28;20294;-71
2023/05/05 04:07:31;;;;;;;4.63;3.33;;;12.10;99.90;;;;;;5085129;28;20719;-71
2023/05/05 04:09:58;;;;;;;5.60;3.50;;;12.10;99.90;;;;;;5085189;28;20294;-71
2023/05/05 04:12:28;;;;;;;6.27;2.80;;;12.10;99.90;;;;;;5085135;28;20732;-71
2023/05/05 04:14:56;;;;;;;6.83;3.30;;;12.00;99.90;;;;;;5085296;28;20737;-71
2023/05/05 04:17:23;;;;;;;5.87;3.47;;;12.00;99.90;;;;;;5085504;28;20234;-71
2023/05/05 04:19:50;;;;;;;7.10;3.40;;;12.00;99.90;;;;;;5085037;28;20935;-71
2023/05/05 04:22:17;;;;;;;6.00;3.20;;;11.90;99.90;;;;;;5085566;28;20317;-71
2023/05/05 04:24:44;;;;;;;20.90;4.20;;;11.90;99.90;;;;;;5085373;28;20203;-71
2023/05/05 04:27:11;;;;;;;6.00;3.23;;;11.90;99.90;;;;;;5106525;28;20670;-71
2023/05/05 04:29:38;;;;;;;60.63;6.40;;;11.90;99.90;;;;;;5104868;27;20257;-71
2023/05/05 04:32:06;;;;;;;12.23;4.03;;;12.00;99.90;;;;;;5092323;28;20207;-71
2023/05/05 04:34:33;;;;;;;4.83;2.93;;;12.00;99.90;;;;;;5104201;27;20241;-71
2023/05/05 04:37:00;;;;;;;7.17;3.20;;;12.10;99.90;;;;;;5112499;27;20336;-71
2023/05/05 04:39:27;;;;;;;6.17;3.37;;;12.10;99.90;;;;;;5112580;27;20206;-71
2023/05/05 04:41:53;;;;;;;10.13;3.87;;;12.10;99.90;;;;;;5112204;27;21017;-71
2023/05/05 04:44:20;;;;;;;7.03;3.10;;;12.10;99.90;;;;;;5112047;27;20702;-71
2023/05/05 04:46:47;;;;;;;6.23;2.90;;;12.10;99.90;;;;;;5112202;27;20316;-71
2023/05/05 04:49:15;;;;;;;5.23;3.33;;;12.00;99.90;;;;;;5097486;27;20202;-71
2023/05/05 04:51:43;;;;;;;5.00;3.00;;;12.10;99.90;;;;;;5091638;28;20669;-70
2023/05/05 04:54:09;;;;;;;5.40;3.83;;;12.10;99.90;;;;;;5091793;28;20302;-71
2023/05/05 04:56:37;;;;;;;4.90;3.27;;;12.10;99.90;;;;;;5091757;28;20290;-71
2023/05/05 04:59:04;;;;;;;9.07;3.20;;;12.10;99.90;;;;;;5098324;27;20213;-71
2023/05/05 05:01:31;;;;;;;5.30;3.50;;;12.10;99.90;;;;;;5132549;27;20217;-71
2023/05/05 05:03:58;;;;;;;4.17;3.03;;;12.10;99.90;;;;;;5133183;27;20209;-70
2023/05/05 05:06:28;;;;;;;6.07;3.57;;;12.20;99.90;;;;;;5133126;27;20294;-71
2023/05/05 05:08:55;;;;;;;3.33;3.00;;;12.20;99.90;;;;;;5110655;27;20564;-70
2023/05/05 05:11:21;;;;;;;6.13;3.20;;;12.30;99.90;;;;;;5111765;27;20237;-71
2023/05/05 05:13:48;;;;;;;7.57;3.50;;;12.30;99.90;;;;;;5112014;27;20201;-71
2023/05/05 05:16:15;;;;;;;4.80;3.60;;;12.40;99.90;;;;;;5111893;27;20256;-70
2023/05/05 05:18:42;;;;;;;3.97;3.17;;;12.50;99.90;;;;;;5111957;27;20210;-71
2023/05/05 05:21:09;;;;;;;7.03;3.23;;;12.60;99.90;;;;;;5111747;27;20668;-71
2023/05/05 05:23:37;;;;;;;8.53;3.20;;;12.60;99.90;;;;;;5093805;27;20671;-71
2023/05/05 05:26:06;;;;;;;5.90;3.63;;;12.70;99.90;;;;;;5091761;28;20298;-71
2023/05/05 05:28:33;;;;;;;5.57;3.67;;;12.70;99.90;;;;;;5091379;28;20243;-71
2023/05/05 05:31:00;;;;;;;8.63;3.80;;;12.70;99.90;;;;;;5111276;27;20708;-71
2023/05/05 05:33:27;;;;;;;6.00;3.83;;;12.70;99.90;;;;;;5112118;27;20576;-71
2023/05/05 05:35:53;;;;;;;7.53;3.83;;;12.70;99.90;;;;;;5111777;27;20305;-71
2023/05/05 05:38:20;;;;;;;10.60;3.77;;;12.80;99.90;;;;;;5108989;27;20348;-71
2023/05/05 05:40:48;;;;;;;6.33;3.90;;;12.80;99.90;;;;;;5108544;28;20210;-71
2023/05/05 05:43:15;;;;;;;5.77;3.83;;;12.80;99.90;;;;;;5108960;28;20294;-71
2023/05/05 05:45:43;;;;;;;5.60;3.90;;;12.80;99.90;;;;;;5108691;28;20198;-71
2023/05/05 05:48:10;;;;;;;16.23;4.40;;;12.80;99.90;;;;;;5103013;28;20290;-70
2023/05/05 05:50:37;;;;;;;5.77;3.80;;;12.80;99.90;;;;;;5087864;28;20210;-70
2023/05/05 05:53:03;;;;;;;7.37;3.40;;;12.80;99.90;;;;;;5088210;28;20321;-71
2023/05/05 05:55:30;;;;;;;7.70;4.00;;;12.90;99.90;;;;;;5087446;28;20325;-71
2023/05/05 05:57:59;;;;;;;8.03;3.80;;;12.90;99.90;;;;;;5088078;28;20272;-71
2023/05/05 06:00:26;;;;;;;7.67;4.07;;;13.00;99.90;;;;;;5102110;27;20711;-71
2023/05/05 06:02:53;;;;;;;4.23;3.83;;;13.00;99.90;;;;;;5108092;27;20297;-71
2023/05/05 06:05:19;;;;;;;8.47;3.93;;;13.10;99.90;;;;;;5108002;28;20245;-70
2023/05/05 06:07:46;;;;;;;9.53;4.30;;;13.10;99.90;;;;;;5108099;28;20301;-71
2023/05/05 06:10:13;;;;;;;10.83;4.10;;;13.20;99.90;;;;;;5107756;28;20317;-71
2023/05/05 06:12:40;;;;;;;7.93;3.90;;;13.20;99.90;;;;;;5108029;28;20337;-71
2023/05/05 06:15:09;;;;;;;6.33;4.00;;;13.20;99.90;;;;;;5107898;28;20210;-71
2023/05/05 06:17:36;;;;;;;9.43;4.07;;;13.30;99.90;;;;;;5098452;28;20241;-71
2023/05/05 06:20:04;;;;;;;71.13;8.83;;;13.40;99.90;;;;;;5107173;28;20237;-71
2023/05/05 06:22:31;;;;;;;29.63;6.07;;;13.50;99.90;;;;;;5107948;28;20206;-71
2023/05/05 06:24:58;;;;;;;6.97;4.03;;;13.50;99.90;;;;;;5107828;28;20298;-71
2023/05/05 06:27:24;;;;;;;6.03;3.93;;;13.60;99.90;;;;;;5092436;28;20213;-71
2023/05/05 06:29:51;;;;;;;6.60;4.00;;;13.60;99.90;;;;;;5087382;28;20211;-71
2023/05/05 06:32:20;;;;;;;6.70;4.20;;;13.60;99.90;;;;;;5087191;28;20207;-71
2023/05/05 06:34:47;;;;;;;7.07;4.40;;;13.60;99.90;;;;;;5087199;28;20206;-71
2023/05/05 06:37:14;;;;;;;9.37;3.87;;;13.60;99.90;;;;;;5086659;28;20325;-71
2023/05/05 06:39:41;;;;;;;9.40;4.10;;;13.70;99.90;;;;;;5104251;28;20294;-71
2023/05/05 06:42:08;;;;;;;9.47;3.90;;;13.70;99.90;;;;;;5106948;28;20213;-71
2023/05/05 06:44:35;;;;;;;6.13;3.77;;;13.80;99.90;;;;;;5107043;28;20202;-71
2023/05/05 06:47:02;;;;;;;5.67;4.03;;;13.90;99.90;;;;;;5107044;28;20217;-71
2023/05/05 06:49:30;;;;;;;13.33;3.80;;;13.90;99.90;;;;;;5107056;28;20202;-71
2023/05/05 06:51:57;;;;;;;11.23;4.17;;;14.00;99.90;;;;;;5107334;28;20240;-71
2023/05/05 06:54:24;;;;;;;8.50;4.20;;;14.00;99.90;;;;;;5107014;28;20297;-71
2023/05/05 06:56:51;;;;;;;5.47;3.87;;;14.00;99.90;;;;;;5106924;28;20206;-71
2023/05/05 06:59:18;;;;;;;7.30;4.30;;;14.00;99.90;;;;;;5106868;27;20294;-71
2023/05/05 07:01:45;;;;;;;9.03;4.40;;;14.00;99.90;;;;;;5106870;28;20233;-71
2023/05/05 07:04:12;;;;;;;6.33;3.50;;;14.00;99.90;;;;;;5106786;28;20302;-71
2023/05/05 07:06:40;;;;;;;6.60;3.50;;;14.00;99.90;;;;;;5106519;28;20256;-71
2023/05/05 07:09:07;;;;;;;5.33;4.13;;;14.00;99.90;;;;;;5106414;28;20744;-71
2023/05/05 07:11:34;;;;;;;6.90;3.83;;;14.10;99.90;;;;;;5106209;28;20779;-71
2023/05/05 07:14:01;;;;;;;7.17;3.77;;;14.10;99.90;;;;;;5106248;28;20315;-71
2023/05/05 07:16:28;;;;;;;4.73;3.93;;;14.10;99.90;;;;;;5086159;28;20297;-71
2023/05/05 07:18:54;;;;;;;6.10;4.17;;;14.10;99.90;;;;;;5086161;28;20342;-71
2023/05/05 07:21:21;;;;;;;27.30;6.27;;;14.20;99.90;;;;;;5086169;28;20302;-71
2023/05/05 07:23:50;;;;;;;13.77;3.67;;;14.30;99.90;;;;;;5118360;27;20730;-71
2023/05/05 07:26:17;;;;;;;6.47;3.73;;;14.30;99.90;;;;;;5126997;27;20210;-71
2023/05/05 07:28:43;;;;;;;6.77;3.70;;;14.40;99.90;;;;;;5127014;27;20294;-71
2023/05/05 07:31:10;;;;;;;6.40;4.03;;;14.40;99.90;;;;;;5106757;28;20282;-71
2023/05/05 07:33:37;;;;;;;9.93;3.70;;;14.40;99.90;;;;;;5107118;27;20288;-71
2023/05/05 07:36:05;;;;;;;5.77;3.87;;;14.50;99.90;;;;;;5106427;28;20587;-71
2023/05/05 07:38:32;;;;;;;4.77;3.50;;;14.50;99.90;;;;;;5106383;28;20234;-71
2023/05/05 07:41:00;;;;;;;5.40;3.77;;;14.60;99.90;;;;;;5106213;28;20293;-71
2023/05/05 07:43:27;;;;;;;6.87;3.67;;;14.60;99.90;;;;;;5105805;28;20249;-71
2023/05/05 07:45:54;;;;;;;10.60;3.67;;;14.70;99.90;;;;;;5106392;28;20293;-71
2023/05/05 07:48:21;;;;;;;6.63;3.87;;;14.70;99.90;;;;;;5098650;28;20202;-71
2023/05/05 07:50:48;;;;;;;3.90;3.50;;;14.70;99.80;;;;;;5085493;28;20301;-71
2023/05/05 07:53:15;;;;;;;6.97;3.70;;;14.80;99.70;;;;;;5085552;28;20736;-71
2023/05/05 07:55:42;;;;;;;7.33;3.67;;;14.80;99.80;;;;;;5085897;28;20298;-71
2023/05/05 07:58:10;;;;;;;8.23;3.80;;;14.90;99.90;;;;;;5085846;28;20317;-71
2023/05/05 08:00:37;;;;;;;7.27;3.60;;;15.00;99.90;;;;;;5117776;27;20263;-71
2023/05/05 08:03:05;;;;;;;8.17;3.50;;;15.00;99.90;;;;;;5126492;27;20315;-71
2023/05/05 08:05:32;;;;;;;5.37;4.17;;;15.10;99.90;;;;;;5126200;27;20212;-70
2023/05/05 08:07:58;;;;;;;5.13;3.53;;;15.10;99.70;;;;;;5127081;27;20804;-71
2023/05/05 08:10:25;;;;;;;6.10;3.43;;;15.20;99.80;;;;;;5124375;27;20837;-71
2023/05/05 08:12:53;;;;;;;25.77;5.70;;;15.20;99.90;;;;;;5105597;28;20241;-71
2023/05/05 08:15:21;;;;;;;8.37;3.77;;;15.30;99.90;;;;;;5105852;28;20202;-71
2023/05/05 08:17:50;;;;;;;8.13;3.90;;;15.30;99.90;;;;;;5106186;28;20336;-71
2023/05/05 08:20:18;;;;;;;8.63;4.10;;;15.40;99.90;;;;;;5087628;28;20221;-71
2023/05/05 08:22:45;;;;;;;8.90;3.83;;;15.50;99.80;;;;;;5085581;28;20314;-71
2023/05/05 08:25:13;;;;;;;11.90;3.87;;;15.50;99.70;;;;;;5084713;28;20309;-71
2023/05/05 08:27:40;;;;;;;4.17;3.67;;;15.50;99.70;;;;;;5085494;28;20214;-70
2023/05/05 08:30:08;;;;;;;5.43;3.63;;;15.60;99.90;;;;;;5096811;28;20700;-71
2023/05/05 08:32:37;;;;;;;42.97;6.13;;;15.60;99.70;;;;;;5085426;28;20202;-71
2023/05/05 08:35:06;;;;;;;28.80;5.33;;;15.70;99.60;;;;;;5085149;28;20214;-71
2023/05/05 08:37:33;;;;;;;4.63;3.90;;;15.70;98.80;;;;;;5084384;28;20327;-71
2023/05/05 08:39:59;;;;;;;6.37;4.40;;;15.80;98.90;;;;;;5084880;28;20211;-71
2023/05/05 08:42:26;;;;;;;6.53;4.00;;;15.90;98.60;;;;;;5084500;28;20628;-71
2023/05/05 08:44:53;;;;;;;9.80;4.30;;;16.00;99.00;;;;;;5084951;28;20746;-71
2023/05/05 08:47:20;;;;;;;5.80;3.60;;;16.00;98.40;;;;;;5085077;28;20293;-71
2023/05/05 08:49:49;;;;;;;5.13;4.17;;;16.00;98.50;;;;;;5103822;28;20202;-71
2023/05/05 08:52:18;;;;;;;4.57;3.70;;;16.10;98.80;;;;;;5105433;28;20664;-71
2023/05/05 08:54:51;;;;;;;6.67;4.20;;;16.10;98.70;;;;;;5106029;28;20289;-71
2023/05/05 08:57:26;;;;;;;5.47;3.50;;;16.20;98.60;;;;;;5105638;28;20562;-71
2023/05/05 08:59:54;;;;;;;7.77;4.43;;;16.20;98.90;;;;;;5095422;28;20237;-71
2023/05/05 09:02:22;;;;;;;9.03;4.07;;;16.30;98.90;;;;;;5084862;28;20213;-71
2023/05/05 09:04:52;;;;;;;11.57;4.63;;;16.40;99.00;;;;;;5085015;28;20211;-71
2023/05/05 09:07:19;;;;;;;27.33;5.20;;;16.50;98.70;;;;;;5087596;28;20325;-71
2023/05/05 09:09:46;;;;;;;7.47;3.70;;;16.60;98.20;;;;;;5084875;28;20230;-71
2023/05/05 09:12:14;;;;;;;7.57;3.97;;;16.60;98.10;;;;;;5084422;28;20728;-71
2023/05/05 09:14:41;;;;;;;10.13;4.03;;;16.60;98.40;;;;;;5090315;28;20207;-71
2023/05/05 09:17:23;;;;;;;7.30;3.87;;;16.70;98.10;;;;;;5103568;28;20226;-71
2023/05/05 09:20:03;;;;;;;6.73;4.13;;;16.70;97.90;;;;;;5088829;28;21005;-71
2023/05/05 09:22:34;;;;;;;7.00;4.27;;;16.80;98.80;;;;;;5088931;28;20198;-70
2023/05/05 09:25:01;;;;;;;6.17;3.77;;;16.90;97.80;;;;;;5088813;28;20290;-71
2023/05/05 09:27:28;;;;;;;8.07;3.80;;;16.90;97.80;;;;;;5088682;28;20203;-70
2023/05/05 09:29:55;;;;;;;7.50;3.90;;;16.90;98.30;;;;;;5099287;28;20206;-70
2023/05/05 09:32:22;;;;;;;5.90;4.07;;;17.10;98.00;;;;;;5109033;28;20251;-70
2023/05/05 09:34:58;;;;;;;7.90;4.23;;;17.10;98.10;;;;;;5109198;28;20214;-71
2023/05/05 09:37:30;;;;;;;7.00;3.57;;;17.20;97.50;;;;;;5108711;28;20815;-71
2023/05/05 09:40:00;;;;;;;4.43;4.00;;;17.30;97.60;;;;;;5108225;28;20383;-71
2023/05/05 09:42:27;;;;;;;5.83;3.83;;;17.40;97.60;;;;;;5108220;28;20206;-71
2023/05/05 09:44:54;;;;;;;7.33;4.07;;;17.40;97.20;;;;;;5108138;28;20745;-71
2023/05/05 09:47:21;;;;;;;7.67;4.20;;;17.40;96.80;;;;;;5108274;28;20243;-71
2023/05/05 09:49:57;;;;;;;4.70;4.10;;;17.50;96.90;;;;;;5108376;28;20210;-70
2023/05/05 09:52:25;;;;;;;7.70;4.00;;;17.60;97.10;;;;;;5107972;27;20680;-70
2023/05/05 09:54:56;;;;;;;5.63;3.60;;;17.80;97.20;;;;;;5107895;28;20241;-71
2023/05/05 09:57:27;;;;;;;3.97;3.40;;;18.00;97.50;;;;;;5108289;28;20217;-71
2023/05/05 09:59:58;;;;;;;5.83;3.80;;;18.00;96.30;;;;;;5098259;28;20385;-71
2023/05/05 10:02:33;;;;;;;5.57;3.80;;;18.00;96.30;;;;;;5087812;28;20389;-70
2023/05/05 10:05:08;;;;;;;5.13;3.80;;;18.10;96.40;;;;;;5107587;28;20240;-71
2023/05/05 10:07:35;;;;;;;5.93;3.47;;;18.10;96.10;;;;;;5108734;28;20220;-70
2023/05/05 10:10:06;;;;;;;4.73;3.77;;;18.10;95.90;;;;;;5108350;28;20847;-71
2023/05/05 10:12:36;;;;;;;6.80;4.03;;;18.10;96.00;;;;;;5124253;27;20320;-71
2023/05/05 10:15:04;;;;;;;11.23;4.40;;;18.20;96.50;;;;;;5128398;27;20309;-70
2023/05/05 10:17:35;;;;;;;3.90;3.50;;;18.30;96.40;;;;;;5119616;27;20296;-70
2023/05/05 10:20:03;;;;;;;6.87;3.67;;;18.40;96.40;;;;;;5107957;28;20237;-70
2023/05/05 10:22:34;;;;;;;6.73;3.83;;;18.40;96.40;;;;;;5108060;28;20208;-71
2023/05/05 10:25:09;;;;;;;5.90;3.80;;;18.50;96.90;;;;;;5107046;28;20216;-71
2023/05/05 10:27:43;;;;;;;8.90;3.70;;;18.60;96.40;;;;;;5107695;28;20280;-71
2023/05/05 10:30:17;;;;;;;7.30;4.87;;;18.70;96.30;;;;;;5119710;27;20292;-70
2023/05/05 10:32:48;;;;;;;4.37;3.40;;;18.80;96.30;;;;;;5127865;27;20190;-71
2023/05/05 10:35:20;;;;;;;14.50;4.70;;;18.90;96.40;;;;;;5127519;27;20296;-71
2023/05/05 10:37:48;;;;;;;7.40;3.47;;;18.90;95.90;;;;;;5128101;27;20186;-71
2023/05/05 10:40:17;;;;;;;4.80;3.53;;;19.00;96.90;;;;;;5127833;27;20721;-69
2023/05/05 10:42:44;;;;;;;6.38;3.30;;;19.00;96.20;;;;;;5128494;27;20206;-69
2023/05/05 10:45:11;;;;;;;7.65;3.60;;;19.00;96.20;;;;;;5128350;27;20292;-69
2023/05/05 10:47:39;;;;;;;7.23;3.50;;;19.20;96.70;;;;;;5126780;27;20205;-69
2023/05/05 10:50:13;;;;;;;3.47;3.03;;;19.30;96.00;;;;;;5107510;27;20325;-69
2023/05/05 10:52:46;;;;;;;3.78;3.35;;;19.30;96.10;;;;;;5107022;28;20195;-69
2023/05/05 10:55:18;;;;;;;5.40;3.05;;;19.30;95.70;;;;;;5107017;28;20210;-69
2023/05/05 10:57:46;;;;;;;8.93;3.53;;;19.40;95.90;;;;;;5106941;28;20285;-69
2023/05/05 11:00:51;;;;;;;8.48;3.38;;;19.50;96.20;;;;;;5101696;27;20238;-70
2023/05/05 11:03:23;;;;;;;4.77;3.33;;;19.60;94.80;;;;;;5070583;28;20210;-69
2023/05/05 11:06:11;;;;;;;3.75;3.22;;;19.70;95.30;;;;;;5086635;28;20629;-69
2023/05/05 11:08:39;;;;;;;7.23;3.70;;;19.80;95.00;;;;;;5086350;28;20227;-69
2023/05/05 11:11:09;;;;;;;4.97;3.50;;;20.00;95.50;;;;;;5085842;28;20214;-70
2023/05/05 11:13:36;;;;;;;9.75;3.83;;;20.10;96.10;;;;;;5086646;28;20222;-70
2023/05/05 11:16:04;;;;;;;10.48;3.78;;;20.20;95.30;;;;;;5086363;28;20420;-70
2023/05/05 11:18:34;;;;;;;6.03;4.03;;;20.20;94.60;;;;;;5103213;28;20222;-70
2023/05/05 11:21:14;;;;;;;4.68;3.00;;;20.20;94.10;;;;;;5089203;28;20213;-70
2023/05/05 11:23:42;;;;;;;4.57;3.33;;;20.40;95.10;;;;;;5086971;28;20198;-70
2023/05/05 11:26:12;;;;;;;10.75;3.78;;;20.50;95.00;;;;;;5086758;28;20260;-70
2023/05/05 11:28:55;;;;;;;5.57;3.40;;;20.70;94.80;;;;;;5086499;28;20329;-69
2023/05/05 11:31:22;;;;;;;5.72;3.10;;;20.70;94.40;;;;;;5085731;28;20238;-69
2023/05/05 11:33:49;;;;;;;3.45;3.15;;;20.70;94.70;;;;;;5086349;28;20238;-70
2023/05/05 11:36:17;;;;;;;4.50;3.20;;;20.60;93.30;;;;;;5085168;28;20245;-70
2023/05/05 11:38:59;;;;;;;6.43;3.15;;;20.60;93.60;;;;;;5086045;28;20345;-70
2023/05/05 11:41:58;;;;;;;14.45;4.15;;;20.60;94.30;;;;;;5085744;28;20554;-70
2023/05/05 11:44:30;;;;;;;3.90;3.42;;;20.60;94.20;;;;;;5085898;28;20282;-70
2023/05/05 11:47:26;;;;;;;9.80;4.05;;;20.70;94.50;;;;;;5085664;28;20637;-69
2023/05/05 11:49:54;;;;;;;7.03;3.03;;;20.70;94.00;;;;;;5105265;28;20213;-70
2023/05/05 11:52:23;;;;;;;3.65;3.00;;;20.80;94.10;;;;;;5105572;28;20570;-69
2023/05/05 11:54:50;;;;;;;5.75;2.85;;;20.90;93.60;;;;;;5105915;28;20210;-70
2023/05/05 11:57:20;;;;;;;4.70;2.97;;;20.90;94.20;;;;;;5102407;28;20292;-70
2023/05/05 11:59:55;;;;;;;3.50;3.10;;;20.90;94.10;;;;;;5096560;28;20230;-70
2023/05/05 12:02:22;;;;;;;4.57;2.92;;;20.80;93.50;;;;;;5085456;28;20202;-70
2023/05/05 12:04:50;;;;;;;4.53;3.05;;;20.90;93.80;;;;;;5099805;28;20253;-70
2023/05/05 12:07:18;;;;;;;11.30;3.53;;;21.00;94.40;;;;;;5105717;28;20267;-70
2023/05/05 12:09:46;;;;;;;3.92;3.10;;;21.20;93.50;;;;;;5105620;28;20917;-70
2023/05/05 12:12:13;;;;;;;5.35;3.22;;;21.20;93.40;;;;;;5105223;28;20272;-70
2023/05/05 12:14:50;;;;;;;5.88;3.08;;;21.30;92.90;;;;;;5105638;28;20301;-70
2023/05/05 12:17:19;;;;;;;14.93;3.67;;;21.50;93.40;;;;;;5104889;28;20210;-70
2023/05/05 12:19:50;;;;;;;8.80;3.10;;;21.60;93.20;;;;;;5105336;28;20230;-70
2023/05/05 12:22:22;;;;;;;6.70;3.00;;;21.80;92.80;;;;;;5105225;28;20626;-70
2023/05/05 12:24:56;;;;;;;5.90;2.72;;;22.10;93.50;;;;;;5105588;28;20276;-69
2023/05/05 12:27:23;;;;;;;9.43;3.40;;;22.10;93.60;;;;;;5105295;28;20635;-70
2023/05/05 12:29:53;;;;;;;5.40;2.80;;;22.20;93.00;;;;;;5095882;28;20242;-70
2023/05/05 12:32:22;;;;;;;10.32;2.67;;;22.30;92.60;;;;;;5084784;28;20286;-70
2023/05/05 12:34:52;;;;;;;6.30;3.15;;;22.40;92.10;;;;;;5085273;28;20325;-70
2023/05/05 12:37:19;;;;;;;10.55;2.95;;;22.50;92.00;;;;;;5084909;28;20218;-70
2023/05/05 12:39:46;;;;;;;5.82;2.80;;;22.60;91.70;;;;;;5084943;28;20326;-70
2023/05/05 12:42:13;;;;;;;9.95;3.25;;;22.60;91.40;;;;;;5085529;28;20935;-70
2023/05/05 12:44:42;;;;;;;5.10;2.83;;;22.60;91.50;;;;;;5085355;28;20305;-70
2023/05/05 12:47:11;;;;;;;87.25;9.25;;;22.60;91.20;;;;;;5085829;28;20237;-70
2023/05/05 12:49:48;;;;;;;5.68;2.80;;;22.70;91.30;;;;;;5089034;28;20226;-72
2023/05/05 12:52:16;;;;;;;4.07;2.72;;;22.90;92.00;;;;;;5088747;28;20301;-70
2023/05/05 12:54:55;;;;;;;9.60;3.20;;;23.00;91.80;;;;;;5089048;28;20213;-70
2023/05/05 12:57:23;;;;;;;6.03;3.05;;;23.20;91.50;;;;;;5088354;28;20234;-70